Time;durP1;ratioP1;P1;durP2;ratioP2;P2;SDS_P1;SDS_P2;PMS_P1;PMS_P2;Temp;Humidity;BMP_temperature;BMP_pressure;BME280_temperature;BME280_humidity;BME280_pressure;Samples;Min_cycle;Max_cycle;Signal;HPM_P1;HPM_P2
2022/08/24 00:01:45;;;;;;;15.63;7.88;;;;;;;;;;5090231;28;20518;-77
2022/08/24 00:04:11;;;;;;;13.27;7.93;;;;;;;;;;5090797;28;20515;-78
2022/08/24 00:06:41;;;;;;;13.38;8.13;;;;;;;;;;5091410;28;20060;-76
2022/08/24 00:09:07;;;;;;;14.10;8.60;;;;;;;;;;5090722;28;20132;-77
2022/08/24 00:11:34;;;;;;;14.00;9.18;;;;;;;;;;5089854;28;20075;-78
2022/08/24 00:14:00;;;;;;;16.52;8.68;;;;;;;;;;5091359;28;20112;-77
2022/08/24 00:16:28;;;;;;;14.95;9.20;;;;;;;;;;5091653;28;20098;-78
2022/08/24 00:18:54;;;;;;;15.25;9.27;;;;;;;;;;5091842;28;20048;-77
2022/08/24 00:21:21;;;;;;;13.38;8.70;;;;;;;;;;5090838;28;20059;-78
2022/08/24 00:23:47;;;;;;;15.43;9.38;;;;;;;;;;5092578;28;20574;-78
2022/08/24 00:26:14;;;;;;;11.15;8.30;;;;;;;;;;5093766;28;20408;-78
2022/08/24 00:28:54;;;;;;;14.55;8.70;;;;;;;;;;5093918;28;20040;-78
2022/08/24 00:31:20;;;;;;;12.80;9.13;;;;;;;;;;5094698;28;20472;-78
2022/08/24 00:33:46;;;;;;;16.35;10.05;;;;;;;;;;5092643;28;20046;-77
2022/08/24 00:36:13;;;;;;;14.10;9.90;;;;;;;;;;5095178;28;20048;-77
2022/08/24 00:38:39;;;;;;;19.55;10.50;;;;;;;;;;5093395;28;20444;-78
2022/08/24 00:41:06;;;;;;;14.05;10.30;;;;;;;;;;5091576;28;20079;-78
2022/08/24 00:43:32;;;;;;;21.98;10.90;;;;;;;;;;5092484;28;20067;-78
2022/08/24 00:46:06;;;;;;;14.82;10.60;;;;;;;;;;5093133;28;20068;-78
2022/08/24 00:48:35;;;;;;;13.93;10.30;;;;;;;;;;5090551;28;20052;-78
2022/08/24 00:51:05;;;;;;;16.45;10.10;;;;;;;;;;5091670;28;20104;-78
2022/08/24 00:53:36;;;;;;;15.18;10.80;;;;;;;;;;5090373;28;20070;-79
2022/08/24 00:56:08;;;;;;;13.65;9.73;;;;;;;;;;5079360;28;20040;-78
2022/08/24 00:58:37;;;;;;;16.20;10.57;;;;;;;;;;5054530;28;20436;-78
2022/08/24 01:01:06;;;;;;;17.10;10.00;;;;;;;;;;5071655;28;20108;-78
2022/08/24 01:03:34;;;;;;;14.52;9.80;;;;;;;;;;5067649;28;20079;-78
2022/08/24 01:06:00;;;;;;;13.18;9.65;;;;;;;;;;5071401;28;20044;-78
2022/08/24 01:08:27;;;;;;;13.85;9.98;;;;;;;;;;5070499;28;20045;-78
2022/08/24 01:11:01;;;;;;;17.67;9.52;;;;;;;;;;5056570;28;20118;-77
2022/08/24 01:13:29;;;;;;;15.38;9.20;;;;;;;;;;5090568;28;20082;-79
2022/08/24 01:15:57;;;;;;;23.05;10.05;;;;;;;;;;5091111;28;20044;-78
2022/08/24 01:21:16;;;;;;;15.90;10.52;;;;;;;;;;5088943;28;20087;-77
2022/08/24 01:23:53;;;;;;;17.70;10.85;;;;;;;;;;5089356;28;20143;-77
2022/08/24 01:26:22;;;;;;;14.38;9.90;;;;;;;;;;5071371;28;20079;-75
2022/08/24 01:28:50;;;;;;;17.38;10.23;;;;;;;;;;5088560;28;20048;-77
2022/08/24 01:31:20;;;;;;;15.52;10.10;;;;;;;;;;5071760;28;20056;-77
2022/08/24 01:33:49;;;;;;;15.77;10.05;;;;;;;;;;5088793;28;20048;-77
2022/08/24 01:36:41;;;;;;;15.57;11.13;;;;;;;;;;5088597;28;20492;-77
2022/08/24 01:39:16;;;;;;;20.30;11.20;;;;;;;;;;5084463;28;20572;-77
2022/08/24 01:41:43;;;;;;;16.83;10.68;;;;;;;;;;5089077;28;20102;-79
2022/08/24 01:44:09;;;;;;;17.75;12.77;;;;;;;;;;5072709;28;20087;-78
2022/08/24 01:46:36;;;;;;;23.48;13.15;;;;;;;;;;5090680;28;20112;-77
2022/08/24 01:49:02;;;;;;;21.33;12.77;;;;;;;;;;5071472;28;20083;-78
2022/08/24 01:51:33;;;;;;;17.67;11.65;;;;;;;;;;5090428;28;20630;-78
2022/08/24 01:54:01;;;;;;;16.92;11.05;;;;;;;;;;5085473;28;20667;-78
2022/08/24 01:56:29;;;;;;;17.90;11.02;;;;;;;;;;5083719;28;20085;-78
2022/08/24 01:58:58;;;;;;;20.80;11.23;;;;;;;;;;5090076;28;20102;-78
2022/08/24 02:01:26;;;;;;;20.75;12.75;;;;;;;;;;5089900;28;20135;-77
2022/08/24 02:03:52;;;;;;;21.25;13.30;;;;;;;;;;5090648;28;20134;-79
2022/08/24 02:06:19;;;;;;;17.58;12.68;;;;;;;;;;5076173;28;20076;-77
2022/08/24 02:08:45;;;;;;;18.80;12.75;;;;;;;;;;5095445;28;20047;-76
2022/08/24 02:11:12;;;;;;;19.67;12.93;;;;;;;;;;5075516;28;20086;-77
2022/08/24 02:13:40;;;;;;;20.23;11.85;;;;;;;;;;5095185;28;20553;-77
2022/08/24 02:16:06;;;;;;;17.98;11.32;;;;;;;;;;5073379;28;20090;-77
2022/08/24 02:18:33;;;;;;;17.50;11.25;;;;;;;;;;5089069;28;20044;-77
2022/08/24 02:21:00;;;;;;;17.38;12.10;;;;;;;;;;5088972;28;20079;-77
2022/08/24 02:23:27;;;;;;;19.20;11.82;;;;;;;;;;5088813;28;20568;-77
2022/08/24 02:25:54;;;;;;;14.35;11.25;;;;;;;;;;5088501;28;20101;-77
2022/08/24 02:28:21;;;;;;;18.80;11.02;;;;;;;;;;5070996;28;20076;-78
2022/08/24 02:30:50;;;;;;;17.38;10.88;;;;;;;;;;5088551;28;20540;-77
2022/08/24 02:33:16;;;;;;;16.48;10.98;;;;;;;;;;5087915;28;20047;-78
2022/08/24 02:35:43;;;;;;;17.35;11.38;;;;;;;;;;5094175;28;20090;-77
2022/08/24 02:38:09;;;;;;;14.85;10.80;;;;;;;;;;5077443;28;20108;-78
2022/08/24 02:40:36;;;;;;;13.65;10.55;;;;;;;;;;5098406;28;20052;-78
2022/08/24 02:43:04;;;;;;;15.65;10.23;;;;;;;;;;5096548;28;20052;-77
2022/08/24 02:45:31;;;;;;;12.60;9.85;;;;;;;;;;5095771;28;20514;-77
2022/08/24 02:47:58;;;;;;;14.32;9.43;;;;;;;;;;5096150;28;20131;-78
2022/08/24 02:50:26;;;;;;;14.60;10.85;;;;;;;;;;5095815;28;20087;-79
2022/08/24 02:52:53;;;;;;;17.95;10.27;;;;;;;;;;5095081;28;20044;-77
2022/08/24 02:55:21;;;;;;;14.40;9.88;;;;;;;;;;5084454;28;20071;-77
2022/08/24 02:57:49;;;;;;;15.43;11.23;;;;;;;;;;5091522;28;20071;-77
2022/08/24 03:00:18;;;;;;;19.85;11.43;;;;;;;;;;5106222;28;20055;-78
2022/08/24 03:02:44;;;;;;;27.83;12.90;;;;;;;;;;5118392;28;20040;-77
2022/08/24 03:05:11;;;;;;;24.25;13.23;;;;;;;;;;5109448;28;20055;-78
2022/08/24 03:07:38;;;;;;;19.50;14.57;;;;;;;;;;5099101;28;20055;-78
2022/08/24 03:10:05;;;;;;;20.88;13.63;;;;;;;;;;5097874;28;20044;-78
2022/08/24 03:12:33;;;;;;;22.65;13.13;;;;;;;;;;5082232;28;20079;-79
2022/08/24 03:15:01;;;;;;;18.90;12.65;;;;;;;;;;5062818;28;20060;-77
2022/08/24 03:17:32;;;;;;;20.73;12.82;;;;;;;;;;5076601;28;20044;-78
2022/08/24 03:19:59;;;;;;;19.20;12.50;;;;;;;;;;5076597;28;20072;-78
2022/08/24 03:22:26;;;;;;;20.00;12.40;;;;;;;;;;5075744;28;20048;-77
2022/08/24 03:24:53;;;;;;;21.15;12.38;;;;;;;;;;5076146;28;20083;-76
2022/08/24 03:27:19;;;;;;;17.58;11.85;;;;;;;;;;5075941;28;20088;-76
2022/08/24 03:29:46;;;;;;;16.42;11.40;;;;;;;;;;5076815;28;20044;-77
2022/08/24 03:32:15;;;;;;;15.45;11.57;;;;;;;;;;5082414;28;20044;-78
2022/08/24 03:34:41;;;;;;;17.75;12.45;;;;;;;;;;5089293;28;20499;-76
2022/08/24 03:37:08;;;;;;;19.92;11.70;;;;;;;;;;5086731;28;20132;-78
2022/08/24 03:39:34;;;;;;;16.98;12.35;;;;;;;;;;5077870;28;20508;-78
2022/08/24 03:42:01;;;;;;;16.55;11.23;;;;;;;;;;5074615;28;20049;-77
2022/08/24 03:44:27;;;;;;;14.27;10.95;;;;;;;;;;5074824;28;20051;-78
2022/08/24 03:46:54;;;;;;;17.27;12.25;;;;;;;;;;5074912;28;20080;-78
2022/08/24 03:49:20;;;;;;;17.10;11.45;;;;;;;;;;5062896;28;20127;-78
2022/08/24 03:51:48;;;;;;;16.85;10.57;;;;;;;;;;5072932;28;20078;-78
2022/08/24 03:54:14;;;;;;;18.13;11.48;;;;;;;;;;5092084;28;20139;-78
2022/08/24 03:56:41;;;;;;;14.18;10.77;;;;;;;;;;5086616;28;20056;-78
2022/08/24 03:59:09;;;;;;;17.10;10.65;;;;;;;;;;5091113;28;20123;-78
2022/08/24 04:01:36;;;;;;;15.50;10.43;;;;;;;;;;5091799;28;20071;-79
2022/08/24 04:04:03;;;;;;;18.48;10.93;;;;;;;;;;5094584;28;20101;-79
2022/08/24 04:06:29;;;;;;;15.43;10.25;;;;;;;;;;5104905;28;20059;-78
2022/08/24 04:08:56;;;;;;;12.65;10.15;;;;;;;;;;5084480;28;20535;-78
2022/08/24 04:11:24;;;;;;;14.50;10.27;;;;;;;;;;5072614;28;20151;-78
2022/08/24 04:13:52;;;;;;;13.52;10.18;;;;;;;;;;5074738;28;20079;-77
2022/08/24 04:16:19;;;;;;;16.77;10.02;;;;;;;;;;5055260;28;20110;-78
2022/08/24 04:18:46;;;;;;;18.83;10.55;;;;;;;;;;5083239;28;20044;-79
2022/08/24 04:21:18;;;;;;;14.27;9.98;;;;;;;;;;5086086;28;20087;-79
2022/08/24 04:23:45;;;;;;;13.38;9.90;;;;;;;;;;5065951;28;20052;-78
2022/08/24 04:26:13;;;;;;;14.32;10.50;;;;;;;;;;5054160;28;20080;-79
2022/08/24 04:28:40;;;;;;;15.25;10.82;;;;;;;;;;5071901;28;20056;-78
2022/08/24 04:31:07;;;;;;;18.23;11.00;;;;;;;;;;5074303;28;20116;-77
2022/08/24 04:33:33;;;;;;;26.90;12.43;;;;;;;;;;5071657;28;20058;-78
2022/08/24 04:36:01;;;;;;;18.85;12.15;;;;;;;;;;5075183;28;20505;-78
2022/08/24 04:38:28;;;;;;;20.00;12.20;;;;;;;;;;5072826;28;20040;-77
2022/08/24 04:40:55;;;;;;;15.85;11.48;;;;;;;;;;5073549;28;20151;-78
2022/08/24 04:43:25;;;;;;;19.45;12.05;;;;;;;;;;5079154;28;20048;-79
2022/08/24 04:45:52;;;;;;;20.58;11.45;;;;;;;;;;5079578;28;20052;-79
2022/08/24 04:48:18;;;;;;;22.30;12.25;;;;;;;;;;5078786;28;20048;-79
2022/08/24 04:50:45;;;;;;;22.13;15.68;;;;;;;;;;5079227;28;20069;-79
2022/08/24 04:53:12;;;;;;;24.20;15.40;;;;;;;;;;5075163;28;20049;-76
2022/08/24 04:55:46;;;;;;;17.30;13.45;;;;;;;;;;5094807;28;20067;-78
2022/08/24 04:58:13;;;;;;;16.40;11.20;;;;;;;;;;5097520;28;20040;-78
2022/08/24 05:00:43;;;;;;;17.30;10.88;;;;;;;;;;5094187;28;20606;-78
2022/08/24 05:03:10;;;;;;;19.02;10.27;;;;;;;;;;5094306;28;20074;-79
2022/08/24 05:05:40;;;;;;;17.02;11.27;;;;;;;;;;5098739;28;20104;-80
2022/08/24 05:08:07;;;;;;;17.55;11.95;;;;;;;;;;5100549;28;20078;-80
2022/08/24 05:10:36;;;;;;;16.67;11.18;;;;;;;;;;5099618;28;20043;-79
2022/08/24 05:13:02;;;;;;;17.45;11.82;;;;;;;;;;5082541;28;20503;-78
2022/08/24 05:15:30;;;;;;;12.77;9.15;;;;;;;;;;5061653;28;20048;-80
2022/08/24 05:17:56;;;;;;;16.08;11.00;;;;;;;;;;5077906;28;20045;-78
2022/08/24 05:20:22;;;;;;;13.48;9.80;;;;;;;;;;5077722;28;20049;-78
2022/08/24 05:22:51;;;;;;;15.70;10.02;;;;;;;;;;5075279;28;20525;-79
2022/08/24 05:25:21;;;;;;;14.05;9.52;;;;;;;;;;5077584;28;20048;-79
2022/08/24 05:27:47;;;;;;;14.85;9.63;;;;;;;;;;5058441;28;20525;-78
2022/08/24 05:30:16;;;;;;;17.30;9.88;;;;;;;;;;5075895;28;20503;-79
2022/08/24 05:32:43;;;;;;;13.88;9.15;;;;;;;;;;5074345;28;20135;-79
2022/08/24 05:35:09;;;;;;;15.38;9.32;;;;;;;;;;5075313;28;20048;-80
2022/08/24 05:37:37;;;;;;;14.75;8.60;;;;;;;;;;5073514;28;20513;-80
2022/08/24 05:40:05;;;;;;;13.43;8.68;;;;;;;;;;5085734;28;20040;-81
2022/08/24 05:42:31;;;;;;;12.65;8.88;;;;;;;;;;5070280;28;20045;-79
2022/08/24 05:44:58;;;;;;;13.82;8.50;;;;;;;;;;5064265;28;20048;-81
2022/08/24 05:47:24;;;;;;;15.55;9.10;;;;;;;;;;5079799;28;20463;-79
2022/08/24 05:49:52;;;;;;;13.20;8.73;;;;;;;;;;5079862;28;20497;-80
2022/08/24 05:52:19;;;;;;;15.77;8.63;;;;;;;;;;5078487;28;20048;-78
2022/08/24 05:54:50;;;;;;;16.38;8.98;;;;;;;;;;5090659;28;20071;-78
2022/08/24 05:57:17;;;;;;;14.90;8.60;;;;;;;;;;5098325;28;20427;-79
2022/08/24 05:59:52;;;;;;;13.90;9.15;;;;;;;;;;5109955;28;20063;-78
2022/08/24 06:02:19;;;;;;;14.70;9.48;;;;;;;;;;5116382;28;20039;-80
2022/08/24 06:04:46;;;;;;;14.40;9.93;;;;;;;;;;5116840;28;20065;-80
2022/08/24 06:07:13;;;;;;;21.35;10.80;;;;;;;;;;5107928;28;20048;-77
2022/08/24 06:09:39;;;;;;;17.52;11.55;;;;;;;;;;5095518;28;20062;-78
2022/08/24 06:12:07;;;;;;;16.75;11.77;;;;;;;;;;5091111;28;20071;-78
2022/08/24 06:14:37;;;;;;;17.77;12.57;;;;;;;;;;5092343;28;20094;-78
2022/08/24 06:17:04;;;;;;;21.35;12.57;;;;;;;;;;5096171;28;20131;-77
2022/08/24 06:19:31;;;;;;;17.95;12.68;;;;;;;;;;5094035;28;20570;-79
2022/08/24 06:21:58;;;;;;;21.60;14.18;;;;;;;;;;5075653;28;20480;-79
2022/08/24 06:27:20;;;;;;;23.23;13.68;;;;;;;;;;5095027;28;20075;-78
2022/08/24 06:29:53;;;;;;;24.48;14.07;;;;;;;;;;5093396;28;20498;-79
2022/08/24 06:32:19;;;;;;;26.70;14.20;;;;;;;;;;5093646;28;20112;-78
2022/08/24 06:34:46;;;;;;;20.73;13.02;;;;;;;;;;5095327;28;20048;-79
2022/08/24 06:37:13;;;;;;;18.05;12.25;;;;;;;;;;5095374;28;20040;-77
2022/08/24 06:39:40;;;;;;;18.23;10.70;;;;;;;;;;5095002;28;20500;-78
2022/08/24 06:42:07;;;;;;;23.05;10.65;;;;;;;;;;5096173;28;20048;-78
2022/08/24 06:44:36;;;;;;;19.88;10.13;;;;;;;;;;5078778;28;20110;-78
2022/08/24 06:47:03;;;;;;;19.08;10.82;;;;;;;;;;5079412;28;20147;-78
2022/08/24 06:49:29;;;;;;;17.27;10.65;;;;;;;;;;5079420;28;20059;-78
2022/08/24 06:51:56;;;;;;;19.00;11.00;;;;;;;;;;5097331;28;20051;-78
2022/08/24 06:54:22;;;;;;;17.10;10.05;;;;;;;;;;5096839;28;20071;-78
2022/08/24 06:56:49;;;;;;;16.40;10.05;;;;;;;;;;5082206;28;20144;-78
2022/08/24 06:59:19;;;;;;;17.90;10.77;;;;;;;;;;5059675;28;20045;-78
2022/08/24 07:01:46;;;;;;;17.65;10.30;;;;;;;;;;5076612;28;20493;-80
2022/08/24 07:04:12;;;;;;;18.95;10.40;;;;;;;;;;5074482;28;20135;-78
2022/08/24 07:06:39;;;;;;;36.45;11.93;;;;;;;;;;5075785;28;20492;-78
2022/08/24 07:09:05;;;;;;;16.33;10.30;;;;;;;;;;5077195;28;20409;-78
2022/08/24 07:11:33;;;;;;;17.27;9.02;;;;;;;;;;5083498;28;20072;-79
2022/08/24 07:14:00;;;;;;;16.35;8.57;;;;;;;;;;5094265;28;20786;-77
2022/08/24 07:16:26;;;;;;;12.75;8.60;;;;;;;;;;5095544;28;20079;-78
2022/08/24 07:18:53;;;;;;;14.30;8.80;;;;;;;;;;5074663;28;20071;-78
2022/08/24 07:21:20;;;;;;;12.60;8.38;;;;;;;;;;5096304;28;20090;-80
2022/08/24 07:23:47;;;;;;;12.50;7.47;;;;;;;;;;5080520;28;20484;-78
2022/08/24 07:26:19;;;;;;;13.88;8.73;;;;;;;;;;5100008;28;20492;-79
2022/08/24 07:28:48;;;;;;;15.32;8.77;;;;;;;;;;5100936;28;20078;-78
2022/08/24 07:31:14;;;;;;;14.65;9.02;;;;;;;;;;5097335;28;20079;-78
2022/08/24 07:33:41;;;;;;;18.40;8.77;;;;;;;;;;5096906;28;20058;-79
2022/08/24 07:36:07;;;;;;;14.45;8.77;;;;;;;;;;5097862;28;20094;-78
2022/08/24 07:38:34;;;;;;;11.98;7.25;;;;;;;;;;5097881;28;20079;-78
2022/08/24 07:41:00;;;;;;;13.07;7.90;;;;;;;;;;5097014;28;20131;-78
2022/08/24 07:43:47;;;;;;;18.40;7.93;;;;;;;;;;5101343;28;20115;-79
2022/08/24 07:46:13;;;;;;;18.05;7.60;;;;;;;;;;5102762;28;20052;-78
2022/08/24 07:48:40;;;;;;;13.00;7.00;;;;;;;;;;5101962;28;20056;-79
2022/08/24 07:51:09;;;;;;;14.65;6.97;;;;;;;;;;5102947;28;20558;-78
2022/08/24 07:53:35;;;;;;;12.52;7.38;;;;;;;;;;5102470;28;20055;-79
2022/08/24 07:56:19;;;;;;;12.27;6.20;;;;;;;;;;5099848;28;20044;-79
2022/08/24 07:58:46;;;;;;;19.35;7.43;;;;;;;;;;5103799;28;20069;-79
2022/08/24 08:01:12;;;;;;;14.02;8.07;;;;;;;;;;5102432;28;20047;-81
2022/08/24 08:03:40;;;;;;;17.23;7.72;;;;;;;;;;5085881;28;20051;-79
2022/08/24 08:06:07;;;;;;;15.23;8.15;;;;;;;;;;5106310;28;20055;-79
2022/08/24 08:08:41;;;;;;;15.77;7.63;;;;;;;;;;5105527;28;20054;-77
2022/08/24 08:11:08;;;;;;;20.50;7.65;;;;;;;;;;5104130;28;20527;-80
2022/08/24 08:13:35;;;;;;;14.18;7.20;;;;;;;;;;5103951;28;20071;-80
2022/08/24 08:16:03;;;;;;;14.18;7.75;;;;;;;;;;5104053;28;20048;-79
2022/08/24 08:18:33;;;;;;;21.63;7.63;;;;;;;;;;5104052;28;20044;-79
2022/08/24 08:21:01;;;;;;;14.82;8.02;;;;;;;;;;5104183;28;20154;-79
2022/08/24 08:26:16;;;;;;;;;;;;;;;;;;5105785;28;20066;-79
2022/08/24 08:28:42;;;;;;;11.80;6.90;;;;;;;;;;5104184;28;19919;-79
2022/08/24 08:31:09;;;;;;;23.80;7.53;;;;;;;;;;5104934;28;20044;-79
2022/08/24 08:33:37;;;;;;;12.43;7.38;;;;;;;;;;5103955;28;20103;-80
2022/08/24 08:36:04;;;;;;;15.02;8.70;;;;;;;;;;5104471;28;20079;-80
2022/08/24 08:38:31;;;;;;;12.95;7.28;;;;;;;;;;5102704;28;20044;-80
2022/08/24 08:41:04;;;;;;;13.75;7.82;;;;;;;;;;5083093;28;20086;-78
2022/08/24 08:43:32;;;;;;;16.27;7.70;;;;;;;;;;5102282;28;20051;-79
2022/08/24 08:46:04;;;;;;;11.45;6.85;;;;;;;;;;5101833;28;20079;-79
2022/08/24 08:48:42;;;;;;;15.05;7.55;;;;;;;;;;5098779;28;20542;-78
2022/08/24 08:51:15;;;;;;;13.20;6.88;;;;;;;;;;5098665;28;20111;-78
2022/08/24 08:53:59;;;;;;;18.10;7.60;;;;;;;;;;5094871;28;20417;-77
2022/08/24 08:56:32;;;;;;;14.20;6.57;;;;;;;;;;5080771;28;20075;-78
2022/08/24 08:59:09;;;;;;;13.90;6.82;;;;;;;;;;5062669;28;20040;-78
2022/08/24 09:01:54;;;;;;;16.58;6.95;;;;;;;;;;5079702;28;20056;-79
2022/08/24 09:04:46;;;;;;;11.95;6.72;;;;;;;;;;5078903;28;20056;-79
2022/08/24 09:07:21;;;;;;;10.93;6.10;;;;;;;;;;5081721;28;20120;-79
2022/08/24 09:09:57;;;;;;;13.98;6.55;;;;;;;;;;5081051;28;20052;-79
2022/08/24 09:12:30;;;;;;;17.30;6.22;;;;;;;;;;5082486;28;20505;-80
2022/08/24 09:15:13;;;;;;;9.40;6.00;;;;;;;;;;5064126;28;20076;-79
2022/08/24 09:17:42;;;;;;;15.43;6.53;;;;;;;;;;5062613;28;20048;-79
2022/08/24 09:20:30;;;;;;;15.13;6.60;;;;;;;;;;5082126;28;20071;-80
2022/08/24 09:23:08;;;;;;;16.65;5.80;;;;;;;;;;5095267;28;20116;-80
2022/08/24 09:25:46;;;;;;;10.52;4.68;;;;;;;;;;5098379;28;20040;-80
2022/08/24 09:28:16;;;;;;;14.98;5.60;;;;;;;;;;5092408;28;20061;-79
2022/08/24 09:31:02;;;;;;;12.38;5.00;;;;;;;;;;5081362;28;20053;-80
2022/08/24 09:33:50;;;;;;;9.45;4.10;;;;;;;;;;5082950;28;20083;-79
2022/08/24 09:36:40;;;;;;;14.52;4.82;;;;;;;;;;5083296;28;20051;-79
2022/08/24 09:39:17;;;;;;;12.63;4.90;;;;;;;;;;5070079;28;20108;-79
2022/08/24 09:42:01;;;;;;;15.32;5.05;;;;;;;;;;5062667;28;20045;-79
2022/08/24 09:44:30;;;;;;;12.90;5.90;;;;;;;;;;5078199;28;20532;-78
2022/08/24 09:46:57;;;;;;;11.02;4.97;;;;;;;;;;5063477;28;20056;-78
2022/08/24 09:49:39;;;;;;;14.55;4.28;;;;;;;;;;5081680;28;20079;-79
2022/08/24 09:52:28;;;;;;;10.55;4.20;;;;;;;;;;5082045;28;20052;-79
2022/08/24 09:54:56;;;;;;;11.83;4.20;;;;;;;;;;5066001;28;20515;-78
2022/08/24 09:57:34;;;;;;;17.63;5.10;;;;;;;;;;5103746;28;20063;-79
2022/08/24 10:00:24;;;;;;;14.23;4.28;;;;;;;;;;5105019;28;20048;-78
2022/08/24 10:02:50;;;;;;;15.20;4.15;;;;;;;;;;5087873;28;20077;-79
2022/08/24 10:05:27;;;;;;;18.52;3.42;;;;;;;;;;5086619;28;20063;-80
2022/08/24 10:08:15;;;;;;;14.35;3.80;;;;;;;;;;5086843;28;20059;-80
2022/08/24 10:11:05;;;;;;;17.58;4.00;;;;;;;;;;5082850;28;20044;-79
2022/08/24 10:13:40;;;;;;;12.52;3.55;;;;;;;;;;5034589;28;20097;-79
2022/08/24 10:16:51;;;;;;;10.48;3.20;;;;;;;;;;5086882;28;20071;-79
2022/08/24 10:19:39;;;;;;;11.65;3.47;;;;;;;;;;4988075;28;20060;-79
2022/08/24 10:22:14;;;;;;;9.07;3.05;;;;;;;;;;4969616;28;20059;-79
2022/08/24 10:25:00;;;;;;;9.23;3.15;;;;;;;;;;4977520;28;20508;-78
2022/08/24 10:27:32;;;;;;;7.40;3.10;;;;;;;;;;5035814;28;20076;-79
2022/08/24 10:30:07;;;;;;;9.18;2.95;;;;;;;;;;5082706;28;20048;-79
2022/08/24 10:32:39;;;;;;;7.88;3.63;;;;;;;;;;5083063;28;20329;-79
2022/08/24 10:35:21;;;;;;;9.13;3.90;;;;;;;;;;5087526;28;20088;-79
2022/08/24 10:37:50;;;;;;;9.88;3.83;;;;;;;;;;5089983;28;20044;-78
2022/08/24 10:40:36;;;;;;;12.07;4.10;;;;;;;;;;5073597;28;20041;-78
2022/08/24 10:43:34;;;;;;;10.20;3.50;;;;;;;;;;5090042;28;20062;-79
2022/08/24 10:46:19;;;;;;;9.13;3.85;;;;;;;;;;5091688;28;20052;-79
2022/08/24 10:48:48;;;;;;;8.98;3.83;;;;;;;;;;5088591;28;20044;-78
2022/08/24 10:51:35;;;;;;;11.40;3.72;;;;;;;;;;5088649;28;20044;-77
2022/08/24 10:54:03;;;;;;;7.90;3.38;;;;;;;;;;5072105;28;20412;-78
2022/08/24 10:56:40;;;;;;;7.78;3.42;;;;;;;;;;5085668;28;20041;-78
2022/08/24 10:59:16;;;;;;;10.60;3.90;;;;;;;;;;5067259;28;20044;-78
2022/08/24 11:01:58;;;;;;;10.82;3.80;;;;;;;;;;5065208;28;20055;-79
2022/08/24 11:04:27;;;;;;;8.38;3.40;;;;;;;;;;5068382;28;20056;-78
2022/08/24 11:07:05;;;;;;;8.10;3.17;;;;;;;;;;5087076;28;20048;-79
2022/08/24 11:09:42;;;;;;;11.88;4.25;;;;;;;;;;5085812;28;20072;-78
2022/08/24 11:12:17;;;;;;;9.45;3.63;;;;;;;;;;5085633;28;20061;-79
2022/08/24 11:14:46;;;;;;;9.50;3.77;;;;;;;;;;5085298;28;20080;-79
2022/08/24 11:17:17;;;;;;;16.88;3.90;;;;;;;;;;5086271;28;20108;-78
2022/08/24 11:19:44;;;;;;;12.25;3.58;;;;;;;;;;5083847;28;20045;-79
2022/08/24 11:22:32;;;;;;;8.18;3.53;;;;;;;;;;5084020;28;20055;-79
2022/08/24 11:25:44;;;;;;;7.05;3.50;;;;;;;;;;5067635;28;20064;-78
2022/08/24 11:28:31;;;;;;;8.93;3.70;;;;;;;;;;5066452;28;20063;-78
2022/08/24 11:30:59;;;;;;;10.88;3.35;;;;;;;;;;5066751;28;20163;-78
2022/08/24 11:33:26;;;;;;;12.27;3.65;;;;;;;;;;5084758;28;20052;-78
2022/08/24 11:35:56;;;;;;;9.50;3.63;;;;;;;;;;5086478;28;20143;-79
2022/08/24 11:38:25;;;;;;;8.25;3.47;;;;;;;;;;5069166;28;20056;-78
2022/08/24 11:40:54;;;;;;;7.30;3.40;;;;;;;;;;5085010;28;20048;-80
2022/08/24 11:43:34;;;;;;;10.55;3.85;;;;;;;;;;5081306;28;20052;-79
2022/08/24 11:46:00;;;;;;;10.27;3.60;;;;;;;;;;5080609;28;20053;-79
2022/08/24 11:48:58;;;;;;;;;;;;;;;;;;;;;
2022/08/24 11:51:37;;;;;;;8.20;3.50;;;;;;;;;;5086317;28;20052;-79
2022/08/24 11:54:37;;;;;;;8.90;3.35;;;;;;;;;;5078496;28;20057;-79
2022/08/24 11:57:09;;;;;;;7.53;3.70;;;;;;;;;;5068206;28;20283;-80
2022/08/24 11:59:54;;;;;;;11.73;3.28;;;;;;;;;;5077566;28;20163;-78
2022/08/24 12:02:21;;;;;;;9.90;3.20;;;;;;;;;;5078472;28;20056;-79
2022/08/24 12:04:53;;;;;;;8.00;3.55;;;;;;;;;;5083044;28;20211;-79
2022/08/24 12:07:19;;;;;;;7.40;3.30;;;;;;;;;;5062196;28;20102;-77
2022/08/24 12:10:01;;;;;;;8.98;3.50;;;;;;;;;;5078735;28;20049;-78
2022/08/24 12:12:47;;;;;;;9.23;3.67;;;;;;;;;;5058880;28;20044;-78
2022/08/24 12:15:19;;;;;;;13.88;3.78;;;;;;;;;;5062169;28;20049;-77
2022/08/24 12:18:01;;;;;;;7.10;3.50;;;;;;;;;;5060773;28;20058;-78
2022/08/24 12:20:30;;;;;;;9.05;3.25;;;;;;;;;;5079755;28;20048;-77
2022/08/24 12:23:08;;;;;;;9.35;3.88;;;;;;;;;;5079517;28;20308;-77
2022/08/24 12:28:26;;;;;;;8.50;4.35;;;;;;;;;;5079400;28;20087;-78
2022/08/24 12:31:06;;;;;;;13.35;3.70;;;;;;;;;;5079196;28;20060;-78
2022/08/24 12:33:35;;;;;;;9.18;3.75;;;;;;;;;;5077693;28;20048;-77
2022/08/24 12:36:16;;;;;;;8.27;3.55;;;;;;;;;;5076504;28;20143;-79
2022/08/24 12:38:45;;;;;;;7.72;3.40;;;;;;;;;;5093477;28;20104;-79
2022/08/24 12:41:23;;;;;;;9.50;3.25;;;;;;;;;;5097361;28;20044;-78
2022/08/24 12:44:10;;;;;;;13.48;4.57;;;;;;;;;;5091249;28;20063;-78
2022/08/24 12:46:38;;;;;;;8.07;4.03;;;;;;;;;;5080238;28;20060;-79
2022/08/24 12:49:09;;;;;;;10.35;4.00;;;;;;;;;;5081709;28;20057;-79
2022/08/24 12:51:38;;;;;;;7.82;3.53;;;;;;;;;;5081561;28;20374;-79
2022/08/24 12:54:20;;;;;;;10.90;3.63;;;;;;;;;;5066261;28;20049;-78
2022/08/24 12:56:53;;;;;;;8.43;3.67;;;;;;;;;;5103428;28;20136;-79
2022/08/24 12:59:28;;;;;;;10.15;4.18;;;;;;;;;;5108844;28;20075;-78
2022/08/24 13:02:03;;;;;;;13.48;3.80;;;;;;;;;;5112844;28;20078;-79
2022/08/24 13:04:33;;;;;;;15.48;4.05;;;;;;;;;;5103633;28;20097;-78
2022/08/24 13:07:10;;;;;;;7.47;3.88;;;;;;;;;;5104465;28;20048;-78
2022/08/24 13:09:42;;;;;;;12.50;4.03;;;;;;;;;;5103381;28;20052;-80
2022/08/24 13:12:36;;;;;;;9.20;3.75;;;;;;;;;;5100761;28;20048;-78
2022/08/24 13:15:21;;;;;;;7.68;3.67;;;;;;;;;;5064963;28;20169;-78
2022/08/24 13:17:52;;;;;;;14.38;4.30;;;;;;;;;;5099817;28;20040;-79
2022/08/24 13:20:33;;;;;;;10.02;4.18;;;;;;;;;;5103716;28;20132;-78
2022/08/24 13:23:12;;;;;;;9.60;3.60;;;;;;;;;;5099788;28;20078;-79
2022/08/24 13:25:50;;;;;;;7.18;3.40;;;;;;;;;;5100243;28;20105;-78
2022/08/24 13:28:20;;;;;;;9.82;3.80;;;;;;;;;;5100319;28;20101;-78
2022/08/24 13:30:52;;;;;;;6.85;3.63;;;;;;;;;;5101104;28;20369;-78
2022/08/24 13:33:25;;;;;;;7.68;3.90;;;;;;;;;;5100065;28;20103;-78
2022/08/24 13:35:53;;;;;;;9.50;3.90;;;;;;;;;;5103021;28;20173;-78
2022/08/24 13:38:23;;;;;;;12.80;3.80;;;;;;;;;;5103104;28;20068;-78
2022/08/24 13:40:52;;;;;;;9.50;4.13;;;;;;;;;;5098402;28;20082;-77
2022/08/24 13:43:22;;;;;;;8.30;3.78;;;;;;;;;;5095377;28;20416;-78
2022/08/24 13:45:54;;;;;;;7.07;4.15;;;;;;;;;;5099496;28;20072;-79
2022/08/24 13:48:49;;;;;;;9.50;4.18;;;;;;;;;;5075856;28;20101;-78
2022/08/24 13:51:24;;;;;;;15.35;5.88;;;;;;;;;;5086083;28;20067;-79
2022/08/24 13:54:00;;;;;;;11.43;4.88;;;;;;;;;;5074531;28;20142;-79
2022/08/24 13:56:36;;;;;;;12.68;5.40;;;;;;;;;;5071757;28;20048;-79
2022/08/24 13:59:31;;;;;;;12.27;5.03;;;;;;;;;;5084972;28;20044;-79
2022/08/24 14:02:10;;;;;;;8.20;4.85;;;;;;;;;;5082816;28;20078;-79
2022/08/24 14:04:52;;;;;;;10.27;5.05;;;;;;;;;;5087191;28;20439;-79
2022/08/24 14:07:23;;;;;;;13.27;4.90;;;;;;;;;;5091478;28;20047;-79
2022/08/24 14:10:00;;;;;;;11.15;4.75;;;;;;;;;;5091121;28;20074;-79
2022/08/24 14:12:29;;;;;;;10.32;5.40;;;;;;;;;;5086306;28;20563;-79
2022/08/24 14:15:16;;;;;;;14.45;5.20;;;;;;;;;;5070014;28;20079;-79
2022/08/24 14:17:55;;;;;;;11.48;4.65;;;;;;;;;;5069650;28;20045;-79
2022/08/24 14:20:40;;;;;;;11.00;4.95;;;;;;;;;;5082783;28;20044;-78
2022/08/24 14:23:06;;;;;;;10.15;4.65;;;;;;;;;;5078680;28;20412;-79
2022/08/24 14:25:34;;;;;;;11.23;4.95;;;;;;;;;;5071442;28;20075;-79
2022/08/24 14:28:02;;;;;;;10.32;4.47;;;;;;;;;;5068386;28;20087;-80
2022/08/24 14:30:29;;;;;;;12.55;4.70;;;;;;;;;;5083791;28;20098;-80
2022/08/24 14:32:58;;;;;;;9.50;4.43;;;;;;;;;;5080974;28;20480;-80
2022/08/24 14:35:52;;;;;;;11.07;4.30;;;;;;;;;;5063389;28;20037;-80
2022/08/24 14:38:21;;;;;;;12.30;4.65;;;;;;;;;;5063002;28;20155;-80
2022/08/24 14:40:50;;;;;;;13.18;4.80;;;;;;;;;;5089596;28;20315;-79
2022/08/24 14:43:23;;;;;;;11.32;4.95;;;;;;;;;;5094899;28;20527;-79
2022/08/24 14:46:04;;;;;;;10.52;5.20;;;;;;;;;;5096590;28;20504;-80
2022/08/24 14:48:50;;;;;;;12.05;5.07;;;;;;;;;;5096046;28;20109;-78
2022/08/24 14:51:30;;;;;;;9.77;5.05;;;;;;;;;;5078612;28;20095;-78
2022/08/24 14:54:14;;;;;;;9.80;5.03;;;;;;;;;;5097508;28;20093;-79
2022/08/24 14:56:40;;;;;;;10.25;4.65;;;;;;;;;;5086310;28;20072;-77
2022/08/24 14:59:11;;;;;;;9.65;4.57;;;;;;;;;;5078387;28;20056;-78
2022/08/24 15:01:43;;;;;;;11.48;4.85;;;;;;;;;;5075753;28;20076;-78
2022/08/24 15:04:18;;;;;;;17.45;5.57;;;;;;;;;;5078654;28;20068;-79
2022/08/24 15:07:06;;;;;;;21.15;5.32;;;;;;;;;;5076532;28;20049;-79